Photometre #645[NE_1.6] Timisoara AOT

File : 20190927_645.hum

27/09/2019,05:18:03,TEMP=18.8,BA=5.52,STAT.h
27/09/2019,05:21:45,TEMP=18.8,BA=5.64,STAT.h
27/09/2019,05:26:07,TEMP=18.8,BA=5.64,STAT.h
27/09/2019,05:31:17,TEMP=18.8,BA=5.64,STAT.h
27/09/2019,05:37:32,TEMP=18.8,BA=5.64,STAT.h
27/09/2019,05:45:36,TEMP=12.6,BA=5.64,STAT.A=2.0,ExtBa=13.28
27/09/2019,05:55:23,TEMP=13.4,BA=5.64,STAT.B=2.0,ExtBa=13.41
27/09/2019,06:04:27,TEMP=14.1,BA=5.36,STAT.A=2.0,ExtBa=12.72
27/09/2019,06:06:20,TEMP=14.3,BA=5.36,STAT.A=2.0,ExtBa=12.76
27/09/2019,06:11:18,TEMP=14.4,BA=5.64,STAT.A=2.0,ExtBa=13.01
27/09/2019,06:18:04,TEMP=14.8,BA=5.64,STAT.A=2.0,ExtBa=13.27
27/09/2019,06:25:56,TEMP=15.4,BA=5.64,STAT.C=2.0,ExtBa=13.53
27/09/2019,06:40:33,TEMP=16.5,BA=5.36,STAT.A=2.0,ExtBa=12.83
27/09/2019,06:45:55,TEMP=16.7,BA=5.36,STAT.A=2.0,ExtBa=13.28
27/09/2019,06:59:03,TEMP=18.0,BA=5.64,STAT.A=2.0,ExtBa=13.92
27/09/2019,07:15:23,TEMP=18.9,BA=5.64,STAT.A=3.0,ExtBa=14.05
27/09/2019,07:25:47,TEMP=19.3,BA=5.64,STAT.F,ExtBa=14.06
27/09/2019,07:40:46,TEMP=19.9,BA=5.60,STAT.D=3.0,ExtBa=13.70
27/09/2019,07:55:46,TEMP=20.8,BA=5.64,STAT.D=3.0,ExtBa=14.18
27/09/2019,08:10:40,TEMP=21.1,BA=5.64,STAT.b=3.0
27/09/2019,08:25:47,TEMP=21.1,BA=5.60,STAT.F,ExtBa=14.38
27/09/2019,08:42:38,TEMP=20.9,BA=5.40,STAT.D=3.0,ExtBa=14.33
27/09/2019,08:55:46,TEMP=21.7,BA=5.56,STAT.D=3.0,ExtBa=14.52
27/09/2019,09:10:46,TEMP=22.5,BA=5.52,STAT.D=3.0,ExtBa=14.57
27/09/2019,09:25:47,TEMP=23.3,BA=5.52,STAT.F,ExtBa=14.56
27/09/2019,09:40:46,TEMP=23.8,BA=5.52,STAT.D=3.0,ExtBa=14.45
27/09/2019,09:55:46,TEMP=24.5,BA=5.52,STAT.D=3.5,ExtBa=14.56
27/09/2019,10:10:46,TEMP=25.1,BA=5.52,STAT.D=3.5,ExtBa=14.55
27/09/2019,10:25:47,TEMP=25.3,BA=5.48,STAT.F,ExtBa=14.56
27/09/2019,10:40:46,TEMP=25.3,BA=5.48,STAT.D=3.5,ExtBa=14.40
27/09/2019,10:55:46,TEMP=25.9,BA=5.48,STAT.D=3.5,ExtBa=14.53
27/09/2019,11:10:46,TEMP=26.8,BA=5.48,STAT.D=3.5,ExtBa=14.52
27/09/2019,11:25:47,TEMP=27.0,BA=5.48,STAT.F,ExtBa=14.51
27/09/2019,11:40:46,TEMP=26.6,BA=5.44,STAT.D=3.5,ExtBa=14.31
27/09/2019,11:55:46,TEMP=27.2,BA=5.48,STAT.D=3.5,ExtBa=14.47
27/09/2019,12:10:46,TEMP=27.8,BA=5.48,STAT.D=3.5,ExtBa=14.46
27/09/2019,12:25:47,TEMP=27.7,BA=5.44,STAT.F,ExtBa=14.44
27/09/2019,12:40:46,TEMP=27.4,BA=5.44,STAT.D=3.5,ExtBa=14.03
27/09/2019,12:55:46,TEMP=27.8,BA=5.44,STAT.D=3.5,ExtBa=14.36
27/09/2019,13:10:46,TEMP=27.9,BA=5.44,STAT.D=3.5,ExtBa=14.35
27/09/2019,13:25:47,TEMP=28.1,BA=5.44,STAT.F,ExtBa=14.30
27/09/2019,13:39:37,TEMP=28.6,BA=5.36,STAT.A=3.5,ExtBa=13.28
27/09/2019,13:52:31,TEMP=27.8,BA=5.40,STAT.A=3.5,ExtBa=14.21
27/09/2019,14:05:39,TEMP=27.4,BA=5.40,STAT.A=3.5,ExtBa=14.18
27/09/2019,14:16:29,TEMP=27.9,BA=5.44,STAT.A=3.5,ExtBa=14.15
27/09/2019,14:25:38,TEMP=28.3,BA=5.40,STAT.C=3.5,ExtBa=14.08
27/09/2019,14:39:43,TEMP=27.5,BA=5.36,STAT.A=3.5,ExtBa=13.03
27/09/2019,14:41:40,TEMP=27.5,BA=5.36,STAT.A=3.5,ExtBa=13.07
27/09/2019,14:46:12,TEMP=27.0,BA=5.36,STAT.A=3.5,ExtBa=13.29
27/09/2019,14:51:27,TEMP=27.0,BA=5.40,STAT.A=3.5,ExtBa=13.38
27/09/2019,14:56:09,TEMP=27.1,BA=5.40,STAT.B=3.5,ExtBa=13.37
27/09/2019,15:05:56,TEMP=26.1,BA=5.32,STAT.A=3.5,ExtBa=13.05
27/09/2019,15:13:39,TEMP=25.0,BA=5.40,STAT.A=3.5,ExtBa=13.14
27/09/2019,15:19:54,TEMP=25.0,BA=5.40,STAT.A=3.5,ExtBa=13.16
27/09/2019,15:25:04,TEMP=25.2,BA=5.36,STAT.A=3.5,ExtBa=13.12
27/09/2019,15:29:26,TEMP=25.2,BA=5.36,STAT.A=3.5,ExtBa=13.07
27/09/2019,15:37:08,TEMP=24.7,BA=5.36,STAT.A=3.5,ExtBa=13.08